createdAt,value
2023-02-22T00:02:10.576Z,99445.06
2023-02-22T00:04:39.615Z,99438.03
2023-02-22T00:07:07.206Z,99439.88
2023-02-22T00:09:33.934Z,99444.28
2023-02-22T00:12:00.635Z,99438.03
2023-02-22T00:14:27.534Z,99435.97
2023-02-22T00:16:59.686Z,99438.28
2023-02-22T00:19:28.061Z,99438.28
2023-02-22T00:21:54.857Z,99434.13
2023-02-22T00:24:24.328Z,99438.81
2023-02-22T00:26:52.459Z,99436.47
2023-02-22T00:29:19.047Z,99438.28
2023-02-22T00:31:45.714Z,99429.16
2023-02-22T00:34:14.154Z,99438.50
2023-02-22T00:36:47.867Z,99425.47
2023-02-22T00:39:14.778Z,99436.63
2023-02-22T00:41:41.370Z,99425.44
2023-02-22T00:44:07.991Z,99430.09
2023-02-22T00:46:34.578Z,99429.56
2023-02-22T00:49:01.178Z,99433.97
2023-02-22T00:51:28.729Z,99432.91
2023-02-22T00:53:55.388Z,99434.19
2023-02-22T00:56:22.071Z,99440.94
2023-02-22T00:58:48.636Z,99430.53
2023-02-22T01:01:15.632Z,99433.94
2023-02-22T01:03:42.546Z,99427.69
2023-02-22T01:06:09.938Z,99430.03
2023-02-22T01:08:36.565Z,99438.13
2023-02-22T01:11:03.178Z,99431.88
2023-02-22T01:13:29.824Z,99430.84
2023-02-22T01:15:56.729Z,99431.09
2023-02-22T01:18:23.419Z,99427.72
2023-02-22T01:20:50.120Z,99431.34
2023-02-22T01:23:17.440Z,99431.09
2023-02-22T01:25:44.484Z,99421.00
2023-02-22T01:28:13.874Z,99429.56
2023-02-22T01:30:40.675Z,99421.25
2023-02-22T01:33:08.107Z,99424.16
2023-02-22T01:35:37.282Z,99422.31
2023-02-22T01:38:04.396Z,99416.84
2023-02-22T01:40:34.566Z,99416.84
2023-02-22T01:43:19.780Z,99421.25
2023-02-22T01:46:03.615Z,99410.63
2023-02-22T01:48:30.228Z,99417.66
2023-02-22T01:51:19.930Z,99415.59
2023-02-22T01:53:57.117Z,99412.47
2023-02-22T01:56:26.858Z,99415.59
2023-02-22T01:59:01.316Z,99409.88
2023-02-22T02:01:29.541Z,99418.22
2023-02-22T02:03:59.782Z,99417.94
2023-02-22T02:06:31.271Z,99420.81
2023-02-22T02:09:05.835Z,99416.41
2023-02-22T02:11:32.607Z,99414.59
2023-02-22T02:14:00.043Z,99415.63
2023-02-22T02:16:47.724Z,99408.09
2023-02-22T02:19:53.108Z,99407.81
2023-02-22T02:22:30.226Z,99407.81
2023-02-22T02:25:30.870Z,99398.22
2023-02-22T02:27:57.530Z,99405.75
2023-02-22T02:30:27.078Z,99405.22
2023-02-22T02:32:59.822Z,99394.81
2023-02-22T02:35:49.243Z,99392.22
2023-02-22T02:38:39.899Z,99394.31
2023-02-22T02:41:10.635Z,99390.41
2023-02-22T02:43:40.656Z,99387.56
2023-02-22T02:46:16.272Z,99384.72
2023-02-22T02:48:54.663Z,99385.25
2023-02-22T02:51:28.559Z,99382.41
2023-02-22T02:53:56.789Z,99379.78
2023-02-22T02:56:23.545Z,99384.75
2023-02-22T02:58:53.002Z,99383.72
2023-02-22T03:01:45.208Z,99389.94
2023-02-22T03:04:35.836Z,99378.50
2023-02-22T03:07:39.060Z,99377.72
2023-02-22T03:10:13.560Z,99381.88
2023-02-22T03:12:55.115Z,99378.22
2023-02-22T03:15:43.490Z,99372.78
2023-02-22T03:18:40.359Z,99371.75
2023-02-22T03:21:14.197Z,99372.50
2023-02-22T03:23:50.275Z,99370.69
2023-02-22T03:26:24.047Z,99376.66
2023-02-22T03:28:55.937Z,99379.28
2023-02-22T03:31:27.783Z,99373.28
2023-02-22T03:34:02.455Z,99363.91
2023-02-22T03:36:39.021Z,99372.50
2023-02-22T03:39:10.184Z,99369.66
2023-02-22T03:41:39.770Z,99375.34
2023-02-22T03:44:14.503Z,99375.09
2023-02-22T03:46:42.779Z,99371.19
2023-02-22T03:49:30.060Z,99367.00
2023-02-22T03:51:56.994Z,99370.66
2023-02-22T03:54:24.779Z,99366.75
2023-02-22T03:57:17.361Z,99365.44
2023-02-22T03:59:45.926Z,99363.88
2023-02-22T04:02:12.618Z,99371.16
2023-02-22T04:04:39.612Z,99363.09
2023-02-22T04:07:06.732Z,99361.28
2023-02-22T04:09:33.476Z,99361.78
2023-02-22T04:12:00.076Z,99363.34
2023-02-22T04:14:29.549Z,99363.88
2023-02-22T04:16:57.719Z,99363.34
2023-02-22T04:19:24.637Z,99365.41
2023-02-22T04:21:51.943Z,99356.56
2023-02-22T04:24:22.409Z,99360.22
2023-02-22T04:26:49.914Z,99359.19
2023-02-22T04:29:17.013Z,99356.06
2023-02-22T04:31:44.844Z,99357.63
2023-02-22T04:34:12.625Z,99357.09
2023-02-22T04:36:42.348Z,99356.56
2023-02-22T04:39:09.162Z,99354.22
2023-02-22T04:41:36.106Z,99353.19
2023-02-22T04:44:03.365Z,99345.63
2023-02-22T04:46:31.441Z,99345.88
2023-02-22T04:48:58.186Z,99354.69
2023-02-22T04:51:27.754Z,99349.75
2023-02-22T04:54:03.646Z,99353.66
2023-02-22T04:56:32.337Z,99351.81
2023-02-22T04:58:59.372Z,99349.22
2023-02-22T05:01:26.027Z,99351.81
2023-02-22T05:03:52.569Z,99350.53
2023-02-22T05:06:19.155Z,99352.09
2023-02-22T05:08:45.687Z,99356.00
2023-02-22T05:11:12.370Z,99350.28
2023-02-22T05:13:38.895Z,99357.06
2023-02-22T05:16:05.852Z,99355.00
2023-02-22T05:18:32.527Z,99351.63
2023-02-22T05:20:59.123Z,99359.16
2023-02-22T05:23:25.743Z,99351.63
2023-02-22T05:25:52.374Z,99355.78
2023-02-22T05:28:19.040Z,99353.69
2023-02-22T05:30:46.379Z,99358.13
2023-02-22T05:33:13.125Z,99351.63
2023-02-22T05:35:40.074Z,99352.91
2023-02-22T05:38:07.086Z,99353.69
2023-02-22T05:40:34.298Z,99350.84
2023-02-22T05:43:02.193Z,99351.63
2023-02-22T05:45:29.202Z,99358.38
2023-02-22T05:47:55.987Z,99357.59
2023-02-22T05:50:24.449Z,99356.28
2023-02-22T05:52:52.127Z,99360.69
2023-02-22T05:55:20.915Z,99364.28
2023-02-22T05:57:47.806Z,99358.31
2023-02-22T06:00:18.718Z,99356.75
2023-02-22T06:02:45.686Z,99351.28
2023-02-22T06:05:12.354Z,99363.50
2023-02-22T06:07:38.949Z,99361.41
2023-02-22T06:10:05.700Z,99361.41
2023-02-22T06:12:32.298Z,99361.41
2023-02-22T06:14:58.948Z,99365.81
2023-02-22T06:17:25.471Z,99356.97
2023-02-22T06:19:52.102Z,99357.75
2023-02-22T06:22:19.925Z,99365.06
2023-02-22T06:24:46.737Z,99368.97
2023-02-22T06:27:13.369Z,99365.34
2023-02-22T06:29:44.144Z,99367.94
2023-02-22T06:32:11.288Z,99364.03
2023-02-22T06:34:37.998Z,99363.53
2023-02-22T06:37:04.635Z,99370.81
2023-02-22T06:39:31.178Z,99368.50
2023-02-22T06:41:58.550Z,99372.94
2023-02-22T06:44:25.215Z,99369.56
2023-02-22T06:46:51.919Z,99382.59
2023-02-22T06:49:20.331Z,99380.50
2023-02-22T06:51:47.703Z,99374.25
2023-02-22T06:54:14.851Z,99381.28
2023-02-22T06:56:41.504Z,99386.50
2023-02-22T06:59:08.519Z,99383.09
2023-02-22T07:01:35.885Z,99384.69
2023-02-22T07:04:02.558Z,99396.13
2023-02-22T07:06:29.241Z,99394.31
2023-02-22T07:08:55.868Z,99399.00
2023-02-22T07:11:22.546Z,99398.50
2023-02-22T07:13:49.220Z,99394.34
2023-02-22T07:16:15.918Z,99400.34
2023-02-22T07:18:42.503Z,99399.88
2023-02-22T07:21:09.111Z,99398.59
2023-02-22T07:23:35.698Z,99400.66
2023-02-22T07:26:03.636Z,99399.13
2023-02-22T07:28:30.171Z,99400.16
2023-02-22T07:30:56.990Z,99396.28
2023-02-22T07:33:23.697Z,99398.91
2023-02-22T07:35:51.086Z,99404.34
2023-02-22T07:38:19.771Z,99398.13
2023-02-22T07:40:46.805Z,99407.25
2023-02-22T07:43:16.773Z,99404.13
2023-02-22T07:45:44.790Z,99404.91
2023-02-22T07:48:12.641Z,99405.19
2023-02-22T07:50:40.589Z,99404.13
2023-02-22T07:53:12.313Z,99400.75
2023-02-22T07:55:39.101Z,99400.25
2023-02-22T07:58:08.669Z,99394.78
2023-02-22T08:00:40.289Z,99388.78
2023-02-22T08:03:09.352Z,99392.97
2023-02-22T08:05:38.455Z,99390.63
2023-02-22T08:08:06.570Z,99390.34
2023-02-22T08:10:35.277Z,99389.84
2023-02-22T08:13:03.293Z,99394.78
2023-02-22T08:15:40.901Z,99394.00
2023-02-22T08:18:10.161Z,99392.69
2023-02-22T08:20:38.154Z,99398.16
2023-02-22T08:23:07.149Z,99395.56
2023-02-22T08:25:34.094Z,99398.94
2023-02-22T08:28:04.527Z,99388.50
2023-02-22T08:30:33.054Z,99394.75
2023-02-22T08:32:59.764Z,99400.28
2023-02-22T08:35:27.531Z,99398.72
2023-02-22T08:37:58.684Z,99392.19
2023-02-22T08:40:27.919Z,99391.41
2023-02-22T08:42:54.662Z,99392.44
2023-02-22T08:45:21.288Z,99393.47
2023-02-22T08:47:49.440Z,99389.03
2023-02-22T08:50:30.659Z,99383.03
2023-02-22T08:52:59.968Z,99390.59
2023-02-22T08:55:32.325Z,99383.53
2023-02-22T08:58:01.426Z,99389.50
2023-02-22T09:00:30.700Z,99392.38
2023-02-22T09:02:57.328Z,99396.00
2023-02-22T09:05:24.071Z,99386.28
2023-02-22T09:07:50.788Z,99389.16
2023-02-22T09:10:20.821Z,99383.94
2023-02-22T09:12:47.531Z,99384.69
2023-02-22T09:15:15.288Z,99385.69
2023-02-22T09:17:42.265Z,99380.75
2023-02-22T09:20:11.871Z,99380.69
2023-02-22T09:22:39.004Z,99387.69
2023-02-22T09:25:16.215Z,99385.53
2023-02-22T09:27:45.007Z,99391.75
2023-02-22T09:30:25.174Z,99387.56
2023-02-22T09:32:54.357Z,99392.78
2023-02-22T09:35:26.975Z,99384.59
2023-02-22T09:37:58.446Z,99385.53
2023-02-22T09:40:29.649Z,99386.81
2023-02-22T09:43:08.168Z,99374.00
2023-02-22T09:45:44.913Z,99378.69
2023-02-22T09:48:21.764Z,99372.66
2023-02-22T09:50:52.771Z,99367.41
2023-02-22T09:53:31.639Z,99368.69
2023-02-22T09:56:06.706Z,99363.41
2023-02-22T09:58:40.212Z,99361.59
2023-02-22T10:01:32.787Z,99360.47
2023-02-22T10:04:14.019Z,99362.19
2023-02-22T10:06:52.576Z,99361.13
2023-02-22T10:09:19.239Z,99354.84
2023-02-22T10:11:52.492Z,99353.94
2023-02-22T10:14:24.792Z,99348.78
2023-02-22T10:17:33.124Z,99350.72
2023-02-22T10:20:06.849Z,99347.41
2023-02-22T10:22:33.515Z,99345.50
2023-02-22T10:25:05.216Z,99340.16
2023-02-22T10:27:45.118Z,99344.47
2023-02-22T10:30:46.882Z,99338.91
2023-02-22T10:33:41.717Z,99349.22
2023-02-22T10:36:20.448Z,99341.00
2023-02-22T10:39:22.456Z,99340.38
2023-02-22T10:41:54.111Z,99338.22
2023-02-22T10:44:20.756Z,99337.00
2023-02-22T10:46:48.307Z,99328.25
2023-02-22T10:49:23.691Z,99325.03
2023-02-22T10:52:01.047Z,99328.03
2023-02-22T10:54:38.844Z,99330.50
2023-02-22T10:57:05.605Z,99322.75
2023-02-22T10:59:38.104Z,99322.94
2023-02-22T11:02:23.810Z,99326.66
2023-02-22T11:04:56.405Z,99319.22
2023-02-22T11:07:25.369Z,99314.91
2023-02-22T11:09:58.515Z,99315.75
2023-02-22T11:12:32.844Z,99314.75
2023-02-22T11:15:18.823Z,99318.03
2023-02-22T11:17:47.925Z,99315.56
2023-02-22T11:20:25.608Z,99318.13
2023-02-22T11:22:54.741Z,99309.88
2023-02-22T11:25:26.246Z,99311.94
2023-02-22T11:27:54.355Z,99311.88
2023-02-22T11:30:30.720Z,99301.41
2023-02-22T11:32:57.340Z,99299.44
2023-02-22T11:35:35.420Z,99304.47
2023-02-22T11:38:24.603Z,99304.03
2023-02-22T11:41:09.433Z,99295.91
2023-02-22T11:43:36.253Z,99294.72
2023-02-22T11:46:19.189Z,99286.72
2023-02-22T11:49:08.845Z,99285.84
2023-02-22T11:51:45.024Z,99276.97
2023-02-22T11:54:32.740Z,99274.06
2023-02-22T11:57:38.063Z,99269.50
2023-02-22T12:00:26.318Z,99273.06
2023-02-22T12:03:11.560Z,99271.50
2023-02-22T12:06:19.239Z,99265.59
2023-02-22T12:09:18.602Z,99272.69
2023-02-22T12:12:04.523Z,99268.13
2023-02-22T12:14:49.826Z,99267.84
2023-02-22T12:17:35.004Z,99262.69
2023-02-22T12:20:24.639Z,99263.56
2023-02-22T12:23:25.353Z,99259.50
2023-02-22T12:26:02.531Z,99260.16
2023-02-22T12:28:32.159Z,99260.66
2023-02-22T12:31:15.076Z,99266.47
2023-02-22T12:34:13.373Z,99260.53
2023-02-22T12:36:48.744Z,99256.28
2023-02-22T12:39:53.284Z,99258.41
2023-02-22T12:42:55.558Z,99259.06
2023-02-22T12:45:22.182Z,99264.00
2023-02-22T12:48:07.262Z,99254.09
2023-02-22T12:50:37.656Z,99257.38
2023-02-22T12:53:19.839Z,99250.28
2023-02-22T12:56:04.651Z,99250.00
2023-02-22T12:58:49.517Z,99252.91
2023-02-22T13:01:20.145Z,99248.03
2023-02-22T13:03:49.108Z,99246.53
2023-02-22T13:06:40.172Z,99249.25
2023-02-22T13:09:24.436Z,99250.31
2023-02-22T13:12:15.710Z,99248.75
2023-02-22T13:15:05.141Z,99255.03
2023-02-22T13:17:49.976Z,99242.25
2023-02-22T13:20:48.772Z,99239.63
2023-02-22T13:23:20.184Z,99239.41
2023-02-22T13:25:50.000Z,99238.63
2023-02-22T13:28:29.782Z,99241.38
2023-02-22T13:31:36.514Z,99238.41
2023-02-22T13:34:16.431Z,99239.97
2023-02-22T13:37:10.667Z,99238.91
2023-02-22T13:40:06.591Z,99234.16
2023-02-22T13:43:04.192Z,99233.09
2023-02-22T13:45:49.402Z,99228.94
2023-02-22T13:48:41.878Z,99235.44
2023-02-22T13:51:15.716Z,99233.09
2023-02-22T13:54:01.418Z,99232.59
2023-02-22T13:56:28.386Z,99236.06
2023-02-22T13:59:04.990Z,99236.16
2023-02-22T14:01:46.307Z,99229.72
2023-02-22T14:04:40.371Z,99238.78
2023-02-22T14:07:22.299Z,99234.88
2023-02-22T14:09:53.082Z,99242.44
2023-02-22T14:12:34.834Z,99232.06
2023-02-22T14:15:30.251Z,99230.78
2023-02-22T14:17:57.346Z,99227.94
2023-02-22T14:20:44.130Z,99226.94
2023-02-22T14:23:34.523Z,99227.59
2023-02-22T14:26:11.767Z,99227.66
2023-02-22T14:28:41.935Z,99216.91
2023-02-22T14:31:25.794Z,99224.06
2023-02-22T14:33:56.313Z,99218.97
2023-02-22T14:36:34.197Z,99216.19
2023-02-22T14:39:15.986Z,99210.91
2023-02-22T14:42:02.245Z,99208.34
2023-02-22T14:44:39.648Z,99215.22
2023-02-22T14:47:09.860Z,99213.72
2023-02-22T14:49:42.938Z,99211.66
2023-02-22T14:52:21.325Z,99213.78
2023-02-22T14:55:07.187Z,99216.34
2023-02-22T14:57:48.368Z,99200.09
2023-02-22T15:00:19.950Z,99203.00
2023-02-22T15:02:57.247Z,99208.78
2023-02-22T15:05:23.969Z,99202.50
2023-02-22T15:07:56.229Z,99201.72
2023-02-22T15:10:27.462Z,99196.00
2023-02-22T15:13:08.887Z,99198.59
2023-02-22T15:15:46.303Z,99202.00
2023-02-22T15:18:22.598Z,99202.59
2023-02-22T15:20:56.011Z,99199.53
2023-02-22T15:23:26.767Z,99200.44
2023-02-22T15:25:54.064Z,99194.75
2023-02-22T15:28:24.164Z,99196.31
2023-02-22T15:30:50.749Z,99196.91
2023-02-22T15:33:24.264Z,99198.00
2023-02-22T15:35:57.681Z,99195.69
2023-02-22T15:38:30.022Z,99186.84
2023-02-22T15:41:02.584Z,99195.00
2023-02-22T15:43:32.217Z,99195.78
2023-02-22T15:45:59.973Z,99186.88
2023-02-22T15:48:27.993Z,99195.03
2023-02-22T15:51:07.659Z,99193.50
2023-02-22T15:53:40.106Z,99191.47
2023-02-22T15:56:12.054Z,99191.19
2023-02-22T15:58:39.250Z,99189.66
2023-02-22T16:01:14.049Z,99179.84
2023-02-22T16:03:45.425Z,99184.41
2023-02-22T16:06:33.421Z,99184.22
2023-02-22T16:09:06.864Z,99179.84
2023-02-22T16:11:39.789Z,99187.97
2023-02-22T16:14:24.083Z,99184.91
2023-02-22T16:17:10.594Z,99187.81
2023-02-22T16:19:42.342Z,99179.78
2023-02-22T16:22:27.658Z,99187.31
2023-02-22T16:25:11.800Z,99183.69
2023-02-22T16:27:49.054Z,99180.59
2023-02-22T16:30:24.501Z,99190.00
2023-02-22T16:32:53.513Z,99191.84
2023-02-22T16:35:20.364Z,99183.31
2023-02-22T16:37:54.752Z,99184.34
2023-02-22T16:40:22.478Z,99177.84
2023-02-22T16:42:51.583Z,99179.16
2023-02-22T16:45:20.182Z,99180.47
2023-02-22T16:47:46.947Z,99179.19
2023-02-22T16:50:17.236Z,99182.31
2023-02-22T16:52:43.850Z,99184.94
2023-02-22T16:55:13.947Z,99179.47
2023-02-22T16:57:44.515Z,99188.59
2023-02-22T17:00:31.843Z,99180.53
2023-02-22T17:03:05.945Z,99180.28
2023-02-22T17:05:36.482Z,99189.13
2023-02-22T17:08:04.110Z,99179.25
2023-02-22T17:10:30.709Z,99182.88
2023-02-22T17:12:58.280Z,99183.16
2023-02-22T17:15:34.867Z,99181.59
2023-02-22T17:18:04.553Z,99183.16
2023-02-22T17:20:31.577Z,99183.16
2023-02-22T17:23:04.028Z,99175.59
2023-02-22T17:25:33.804Z,99185.25
2023-02-22T17:28:00.479Z,99186.53
2023-02-22T17:30:28.073Z,99183.41
2023-02-22T17:33:03.335Z,99183.13
2023-02-22T17:35:35.683Z,99182.88
2023-02-22T17:38:06.152Z,99177.94
2023-02-22T17:40:34.628Z,99179.50
2023-02-22T17:43:01.881Z,99181.56
2023-02-22T17:45:29.509Z,99183.38
2023-02-22T17:48:27.141Z,99175.59
2023-02-22T17:50:53.929Z,99179.47
2023-02-22T17:53:24.439Z,99183.13
2023-02-22T17:55:51.656Z,99178.19
2023-02-22T17:58:18.624Z,99175.31
2023-02-22T18:00:47.909Z,99177.91
2023-02-22T18:03:21.132Z,99176.88
2023-02-22T18:05:50.104Z,99174.00
2023-02-22T18:08:17.146Z,99178.16
2023-02-22T18:10:44.048Z,99171.94
2023-02-22T18:13:18.733Z,99174.28
2023-02-22T18:15:46.876Z,99167.75
2023-02-22T18:18:14.776Z,99170.63
2023-02-22T18:20:44.818Z,99166.47
2023-02-22T18:23:15.807Z,99159.44
2023-02-22T18:26:07.647Z,99164.63
2023-02-22T18:28:35.517Z,99160.72
2023-02-22T18:31:10.558Z,99164.59
2023-02-22T18:33:37.135Z,99163.56
2023-02-22T18:36:04.583Z,99161.75
2023-02-22T18:38:31.333Z,99153.69
2023-02-22T18:41:06.104Z,99151.59
2023-02-22T18:43:36.512Z,99149.25
2023-02-22T18:46:10.014Z,99154.19
2023-02-22T18:48:37.062Z,99148.47
2023-02-22T18:51:06.062Z,99155.25
2023-02-22T18:53:33.190Z,99150.06
2023-02-22T18:56:12.094Z,99150.03
2023-02-22T18:58:39.044Z,99152.13
2023-02-22T19:01:07.352Z,99147.19
2023-02-22T19:03:38.134Z,99139.38
2023-02-22T19:06:08.737Z,99134.44
2023-02-22T19:08:40.381Z,99135.72
2023-02-22T19:11:11.019Z,99137.03
2023-02-22T19:13:38.119Z,99131.31
2023-02-22T19:16:05.977Z,99132.09
2023-02-22T19:18:33.132Z,99130.28
2023-02-22T19:21:02.225Z,99128.72
2023-02-22T19:23:29.830Z,99134.16
2023-02-22T19:25:57.340Z,99134.94
2023-02-22T19:28:28.053Z,99130.53
2023-02-22T19:30:54.982Z,99121.94
2023-02-22T19:33:25.990Z,99127.09
2023-02-22T19:35:52.606Z,99122.47
2023-02-22T19:38:19.751Z,99120.91
2023-02-22T19:40:48.296Z,99125.59
2023-02-22T19:43:17.407Z,99123.75
2023-02-22T19:45:50.284Z,99120.63
2023-02-22T19:48:19.586Z,99113.13
2023-02-22T19:50:51.165Z,99116.50
2023-02-22T19:53:19.656Z,99112.06
2023-02-22T19:55:48.453Z,99117.47
2023-02-22T19:58:16.992Z,99115.13
2023-02-22T20:00:46.725Z,99108.91
2023-02-22T20:03:15.599Z,99110.22
2023-02-22T20:05:42.482Z,99117.22
2023-02-22T20:08:09.037Z,99116.16
2023-02-22T20:10:36.073Z,99114.88
2023-02-22T20:13:03.114Z,99113.56
2023-02-22T20:15:29.984Z,99114.09
2023-02-22T20:17:57.849Z,99112.25
2023-02-22T20:20:25.622Z,99107.31
2023-02-22T20:22:53.148Z,99108.91
2023-02-22T20:25:20.159Z,99110.97
2023-02-22T20:27:46.988Z,99111.22
2023-02-22T20:30:14.504Z,99116.41
2023-02-22T20:32:42.673Z,99114.28
2023-02-22T20:35:09.470Z,99109.09
2023-02-22T20:37:38.963Z,99104.66
2023-02-22T20:40:06.655Z,99109.28
2023-02-22T20:42:33.193Z,99113.94
2023-02-22T20:45:04.541Z,99102.00
2023-02-22T20:47:31.678Z,99107.19
2023-02-22T20:49:58.274Z,99099.91
2023-02-22T20:52:24.850Z,99103.28
2023-02-22T20:54:51.471Z,99105.59
2023-02-22T20:57:18.086Z,99103.75
2023-02-22T20:59:45.917Z,99101.66
2023-02-22T21:02:12.692Z,99101.66
2023-02-22T21:04:39.952Z,99096.22
2023-02-22T21:07:06.584Z,99096.47
2023-02-22T21:09:33.903Z,99099.06
2023-02-22T21:12:00.518Z,99096.75
2023-02-22T21:14:27.225Z,99099.09
2023-02-22T21:16:54.011Z,99100.66
2023-02-22T21:19:25.512Z,99098.56
2023-02-22T21:21:54.886Z,99099.84
2023-02-22T21:24:23.541Z,99102.69
2023-02-22T21:26:50.424Z,99104.00
2023-02-22T21:29:17.017Z,99092.09
2023-02-22T21:31:44.414Z,99089.75
2023-02-22T21:34:17.433Z,99091.31
2023-02-22T21:36:45.250Z,99092.63
2023-02-22T21:39:20.169Z,99089.25
2023-02-22T21:41:49.044Z,99085.34
2023-02-22T21:44:16.416Z,99085.34
2023-02-22T21:46:43.629Z,99082.50
2023-02-22T21:49:11.668Z,99075.22
2023-02-22T21:51:38.413Z,99073.47
2023-02-22T21:54:06.958Z,99077.34
2023-02-22T21:56:40.386Z,99069.31
2023-02-22T21:59:15.485Z,99069.31
2023-02-22T22:01:49.594Z,99069.31
2023-02-22T22:04:20.984Z,99071.44
2023-02-22T22:06:51.870Z,99063.91
2023-02-22T22:09:19.976Z,99066.00
2023-02-22T22:11:58.911Z,99075.09
2023-02-22T22:14:26.673Z,99068.06
2023-02-22T22:16:58.136Z,99068.06
2023-02-22T22:19:29.286Z,99063.66
2023-02-22T22:21:57.108Z,99063.38
2023-02-22T22:24:24.689Z,99065.72
2023-02-22T22:26:54.694Z,99063.13
2023-02-22T22:29:24.315Z,99068.59
2023-02-22T22:31:51.979Z,99065.16
2023-02-22T22:34:19.478Z,99064.34
2023-02-22T22:36:46.433Z,99061.75
2023-02-22T22:39:13.105Z,99063.84
2023-02-22T22:41:41.346Z,99062.03
2023-02-22T22:44:09.875Z,99066.19
2023-02-22T22:46:39.707Z,99069.53
2023-02-22T22:49:12.300Z,99073.16
2023-02-22T22:51:41.016Z,99067.66
2023-02-22T22:54:09.420Z,99069.19
2023-02-22T22:56:37.938Z,99069.94
2023-02-22T22:59:09.819Z,99065.28
2023-02-22T23:01:44.262Z,99070.97
2023-02-22T23:04:13.466Z,99069.66
2023-02-22T23:06:43.631Z,99076.13
2023-02-22T23:09:19.013Z,99076.63
2023-02-22T23:11:54.983Z,99076.09
2023-02-22T23:14:31.167Z,99068.56
2023-02-22T23:17:03.212Z,99072.69
2023-02-22T23:19:34.545Z,99072.94
2023-02-22T23:22:05.170Z,99077.09
2023-02-22T23:24:35.996Z,99073.47
2023-02-22T23:27:07.088Z,99072.97
2023-02-22T23:29:39.560Z,99069.63
2023-02-22T23:32:07.368Z,99080.03
2023-02-22T23:34:35.873Z,99080.09
2023-02-22T23:37:03.089Z,99078.78
2023-02-22T23:39:29.773Z,99076.44
2023-02-22T23:41:59.212Z,99075.69
2023-02-22T23:44:27.602Z,99073.06
2023-02-22T23:46:55.170Z,99068.16
2023-02-22T23:49:37.899Z,99073.09
2023-02-22T23:52:06.331Z,99075.47
2023-02-22T23:54:36.444Z,99070.28
2023-02-22T23:57:04.133Z,99071.06
2023-02-22T23:59:31.739Z,99073.94
